sensor_id;sensor_type;location;lat;lon;timestamp;P1;durP1;ratioP1;P2;durP2;ratioP2
29940;SDS011;16801;53.562;10.038;2023-04-25T00:01:39;1.93;;;1.30;;
29940;SDS011;16801;53.562;10.038;2023-04-25T00:05:00;1.83;;;1.73;;
29940;SDS011;16801;53.562;10.038;2023-04-25T00:08:22;3.73;;;2.20;;
29940;SDS011;16801;53.562;10.038;2023-04-25T00:11:43;4.60;;;2.07;;
29940;SDS011;16801;53.562;10.038;2023-04-25T00:15:04;2.77;;;1.57;;
29940;SDS011;16801;53.562;10.038;2023-04-25T00:18:26;4.17;;;3.07;;
29940;SDS011;16801;53.562;10.038;2023-04-25T00:21:48;9.63;;;2.63;;
29940;SDS011;16801;53.562;10.038;2023-04-25T00:25:10;1.77;;;1.57;;
29940;SDS011;16801;53.562;10.038;2023-04-25T00:28:33;6.87;;;2.17;;
29940;SDS011;16801;53.562;10.038;2023-04-25T00:31:54;3.97;;;2.53;;
29940;SDS011;16801;53.562;10.038;2023-04-25T00:35:18;6.77;;;2.13;;
29940;SDS011;16801;53.562;10.038;2023-04-25T00:38:39;4.03;;;3.03;;
29940;SDS011;16801;53.562;10.038;2023-04-25T00:42:01;6.50;;;3.23;;
29940;SDS011;16801;53.562;10.038;2023-04-25T00:45:24;5.53;;;3.53;;
29940;SDS011;16801;53.562;10.038;2023-04-25T00:48:48;7.13;;;2.70;;
29940;SDS011;16801;53.562;10.038;2023-04-25T00:52:09;6.30;;;2.83;;
29940;SDS011;16801;53.562;10.038;2023-04-25T00:55:30;7.67;;;3.83;;
29940;SDS011;16801;53.562;10.038;2023-04-25T00:58:55;5.30;;;3.00;;
29940;SDS011;16801;53.562;10.038;2023-04-25T01:02:16;7.33;;;3.80;;
29940;SDS011;16801;53.562;10.038;2023-04-25T01:05:37;7.43;;;3.50;;
29940;SDS011;16801;53.562;10.038;2023-04-25T01:08:59;9.93;;;4.47;;
29940;SDS011;16801;53.562;10.038;2023-04-25T01:12:20;11.53;;;3.60;;
29940;SDS011;16801;53.562;10.038;2023-04-25T01:15:42;7.40;;;2.90;;
29940;SDS011;16801;53.562;10.038;2023-04-25T01:19:04;3.37;;;2.37;;
29940;SDS011;16801;53.562;10.038;2023-04-25T01:22:33;6.20;;;2.43;;
29940;SDS011;16801;53.562;10.038;2023-04-25T01:25:53;10.90;;;3.17;;
29940;SDS011;16801;53.562;10.038;2023-04-25T01:29:15;10.83;;;3.30;;
29940;SDS011;16801;53.562;10.038;2023-04-25T01:32:36;8.03;;;4.53;;
29940;SDS011;16801;53.562;10.038;2023-04-25T01:35:58;6.80;;;2.97;;
29940;SDS011;16801;53.562;10.038;2023-04-25T01:39:21;11.17;;;3.30;;
29940;SDS011;16801;53.562;10.038;2023-04-25T01:42:43;4.40;;;3.80;;
29940;SDS011;16801;53.562;10.038;2023-04-25T01:46:07;9.03;;;2.93;;
29940;SDS011;16801;53.562;10.038;2023-04-25T01:49:28;3.10;;;2.33;;
29940;SDS011;16801;53.562;10.038;2023-04-25T01:52:48;3.73;;;3.30;;
29940;SDS011;16801;53.562;10.038;2023-04-25T01:56:11;5.67;;;3.97;;
29940;SDS011;16801;53.562;10.038;2023-04-25T01:59:32;4.47;;;2.83;;
29940;SDS011;16801;53.562;10.038;2023-04-25T02:03:00;4.67;;;2.67;;
29940;SDS011;16801;53.562;10.038;2023-04-25T02:06:25;17.80;;;4.60;;
29940;SDS011;16801;53.562;10.038;2023-04-25T02:09:49;5.37;;;3.43;;
29940;SDS011;16801;53.562;10.038;2023-04-25T02:13:14;8.03;;;3.97;;
29940;SDS011;16801;53.562;10.038;2023-04-25T02:16:50;5.60;;;3.67;;
29940;SDS011;16801;53.562;10.038;2023-04-25T02:20:13;9.93;;;3.33;;
29940;SDS011;16801;53.562;10.038;2023-04-25T02:23:38;6.00;;;3.07;;
29940;SDS011;16801;53.562;10.038;2023-04-25T02:27:07;11.37;;;3.97;;
29940;SDS011;16801;53.562;10.038;2023-04-25T02:30:30;6.43;;;4.30;;
29940;SDS011;16801;53.562;10.038;2023-04-25T02:33:51;7.27;;;3.00;;
29940;SDS011;16801;53.562;10.038;2023-04-25T02:37:12;9.43;;;3.43;;
29940;SDS011;16801;53.562;10.038;2023-04-25T02:40:33;8.57;;;3.77;;
29940;SDS011;16801;53.562;10.038;2023-04-25T02:43:56;7.27;;;3.30;;
29940;SDS011;16801;53.562;10.038;2023-04-25T02:47:18;4.37;;;3.23;;
29940;SDS011;16801;53.562;10.038;2023-04-25T02:50:39;5.07;;;2.90;;
29940;SDS011;16801;53.562;10.038;2023-04-25T02:54:01;10.17;;;4.83;;
29940;SDS011;16801;53.562;10.038;2023-04-25T02:57:25;7.20;;;5.13;;
29940;SDS011;16801;53.562;10.038;2023-04-25T03:00:46;10.03;;;3.90;;
29940;SDS011;16801;53.562;10.038;2023-04-25T03:04:10;6.33;;;3.30;;
29940;SDS011;16801;53.562;10.038;2023-04-25T03:07:31;5.77;;;3.00;;
29940;SDS011;16801;53.562;10.038;2023-04-25T03:10:52;8.97;;;4.07;;
29940;SDS011;16801;53.562;10.038;2023-04-25T03:14:15;3.40;;;2.57;;
29940;SDS011;16801;53.562;10.038;2023-04-25T03:17:36;5.37;;;3.50;;
29940;SDS011;16801;53.562;10.038;2023-04-25T03:20:58;15.53;;;3.47;;
29940;SDS011;16801;53.562;10.038;2023-04-25T03:24:19;8.17;;;4.00;;
29940;SDS011;16801;53.562;10.038;2023-04-25T03:27:39;8.77;;;2.60;;
29940;SDS011;16801;53.562;10.038;2023-04-25T03:31:00;6.47;;;3.67;;
29940;SDS011;16801;53.562;10.038;2023-04-25T03:34:21;6.70;;;2.53;;
29940;SDS011;16801;53.562;10.038;2023-04-25T03:37:44;6.73;;;2.60;;
29940;SDS011;16801;53.562;10.038;2023-04-25T03:41:09;7.13;;;3.93;;
29940;SDS011;16801;53.562;10.038;2023-04-25T03:44:37;7.00;;;2.90;;
29940;SDS011;16801;53.562;10.038;2023-04-25T03:47:58;7.07;;;3.10;;
29940;SDS011;16801;53.562;10.038;2023-04-25T03:51:21;4.23;;;2.97;;
29940;SDS011;16801;53.562;10.038;2023-04-25T03:54:43;5.90;;;2.50;;
29940;SDS011;16801;53.562;10.038;2023-04-25T03:58:08;10.50;;;4.50;;
29940;SDS011;16801;53.562;10.038;2023-04-25T04:01:30;5.37;;;3.43;;
29940;SDS011;16801;53.562;10.038;2023-04-25T04:04:51;6.40;;;2.23;;
29940;SDS011;16801;53.562;10.038;2023-04-25T04:08:12;5.90;;;3.33;;
29940;SDS011;16801;53.562;10.038;2023-04-25T04:11:34;12.80;;;2.53;;
29940;SDS011;16801;53.562;10.038;2023-04-25T04:14:57;7.53;;;4.40;;
29940;SDS011;16801;53.562;10.038;2023-04-25T04:18:18;5.00;;;3.27;;
29940;SDS011;16801;53.562;10.038;2023-04-25T04:21:39;6.27;;;3.13;;
29940;SDS011;16801;53.562;10.038;2023-04-25T04:25:00;5.93;;;2.83;;
29940;SDS011;16801;53.562;10.038;2023-04-25T04:28:42;11.83;;;3.10;;
29940;SDS011;16801;53.562;10.038;2023-04-25T04:32:38;6.17;;;2.23;;
29940;SDS011;16801;53.562;10.038;2023-04-25T04:36:00;4.97;;;1.73;;
29940;SDS011;16801;53.562;10.038;2023-04-25T04:39:22;10.53;;;2.43;;
29940;SDS011;16801;53.562;10.038;2023-04-25T04:42:55;5.63;;;3.10;;
29940;SDS011;16801;53.562;10.038;2023-04-25T04:46:37;7.17;;;2.60;;
29940;SDS011;16801;53.562;10.038;2023-04-25T04:50:19;3.60;;;2.33;;
29940;SDS011;16801;53.562;10.038;2023-04-25T04:54:00;5.97;;;2.00;;
29940;SDS011;16801;53.562;10.038;2023-04-25T04:57:32;5.87;;;2.83;;
29940;SDS011;16801;53.562;10.038;2023-04-25T05:01:05;4.73;;;2.43;;
29940;SDS011;16801;53.562;10.038;2023-04-25T05:04:48;3.63;;;2.00;;
29940;SDS011;16801;53.562;10.038;2023-04-25T05:08:22;9.87;;;3.30;;
29940;SDS011;16801;53.562;10.038;2023-04-25T05:11:55;5.27;;;2.63;;
29940;SDS011;16801;53.562;10.038;2023-04-25T05:15:28;5.27;;;2.37;;
29940;SDS011;16801;53.562;10.038;2023-04-25T05:19:19;7.17;;;3.20;;
29940;SDS011;16801;53.562;10.038;2023-04-25T05:22:47;5.07;;;2.10;;
29940;SDS011;16801;53.562;10.038;2023-04-25T05:26:26;5.63;;;2.10;;
29940;SDS011;16801;53.562;10.038;2023-04-25T05:30:13;5.53;;;2.73;;
29940;SDS011;16801;53.562;10.038;2023-04-25T05:33:59;7.20;;;2.53;;
29940;SDS011;16801;53.562;10.038;2023-04-25T05:37:32;5.17;;;1.83;;
29940;SDS011;16801;53.562;10.038;2023-04-25T05:41:04;3.60;;;1.87;;
29940;SDS011;16801;53.562;10.038;2023-04-25T05:44:41;6.77;;;2.57;;
29940;SDS011;16801;53.562;10.038;2023-04-25T05:48:18;3.63;;;1.90;;
29940;SDS011;16801;53.562;10.038;2023-04-25T05:52:08;5.97;;;3.83;;
29940;SDS011;16801;53.562;10.038;2023-04-25T05:55:40;5.13;;;1.77;;
29940;SDS011;16801;53.562;10.038;2023-04-25T05:59:20;10.27;;;3.13;;
29940;SDS011;16801;53.562;10.038;2023-04-25T06:02:41;5.13;;;1.93;;
29940;SDS011;16801;53.562;10.038;2023-04-25T06:06:04;3.07;;;2.07;;
29940;SDS011;16801;53.562;10.038;2023-04-25T06:09:25;11.47;;;2.67;;
29940;SDS011;16801;53.562;10.038;2023-04-25T06:12:47;5.20;;;2.67;;
29940;SDS011;16801;53.562;10.038;2023-04-25T06:16:11;7.07;;;2.10;;
29940;SDS011;16801;53.562;10.038;2023-04-25T06:19:32;2.17;;;1.70;;
29940;SDS011;16801;53.562;10.038;2023-04-25T06:22:53;3.07;;;1.63;;
29940;SDS011;16801;53.562;10.038;2023-04-25T06:26:20;6.67;;;2.30;;
29940;SDS011;16801;53.562;10.038;2023-04-25T06:29:41;8.27;;;2.23;;
29940;SDS011;16801;53.562;10.038;2023-04-25T06:33:04;2.97;;;1.87;;
29940;SDS011;16801;53.562;10.038;2023-04-25T06:36:26;3.97;;;1.90;;
29940;SDS011;16801;53.562;10.038;2023-04-25T06:39:51;10.53;;;3.90;;
29940;SDS011;16801;53.562;10.038;2023-04-25T06:43:12;4.37;;;2.07;;
29940;SDS011;16801;53.562;10.038;2023-04-25T06:46:57;4.27;;;2.23;;
29940;SDS011;16801;53.562;10.038;2023-04-25T06:50:20;5.83;;;1.80;;
29940;SDS011;16801;53.562;10.038;2023-04-25T06:53:41;4.60;;;1.70;;
29940;SDS011;16801;53.562;10.038;2023-04-25T06:57:08;3.33;;;1.93;;
29940;SDS011;16801;53.562;10.038;2023-04-25T07:00:30;8.90;;;1.90;;
29940;SDS011;16801;53.562;10.038;2023-04-25T07:03:52;3.80;;;2.10;;
29940;SDS011;16801;53.562;10.038;2023-04-25T07:07:15;4.43;;;1.60;;
29940;SDS011;16801;53.562;10.038;2023-04-25T07:10:46;4.53;;;1.77;;
29940;SDS011;16801;53.562;10.038;2023-04-25T07:14:07;2.80;;;2.37;;
29940;SDS011;16801;53.562;10.038;2023-04-25T07:17:28;4.17;;;2.33;;
29940;SDS011;16801;53.562;10.038;2023-04-25T07:20:50;2.40;;;2.17;;
29940;SDS011;16801;53.562;10.038;2023-04-25T07:24:13;4.63;;;4.20;;
29940;SDS011;16801;53.562;10.038;2023-04-25T07:27:38;1.50;;;1.30;;
29940;SDS011;16801;53.562;10.038;2023-04-25T07:31:05;4.47;;;1.90;;
29940;SDS011;16801;53.562;10.038;2023-04-25T07:34:26;1.77;;;1.67;;
29940;SDS011;16801;53.562;10.038;2023-04-25T07:37:46;5.00;;;3.57;;
29940;SDS011;16801;53.562;10.038;2023-04-25T07:41:12;3.63;;;1.40;;
29940;SDS011;16801;53.562;10.038;2023-04-25T07:44:34;3.57;;;1.73;;
29940;SDS011;16801;53.562;10.038;2023-04-25T07:47:58;6.23;;;1.90;;
29940;SDS011;16801;53.562;10.038;2023-04-25T07:51:20;5.90;;;2.53;;
29940;SDS011;16801;53.562;10.038;2023-04-25T07:54:42;4.30;;;1.30;;
29940;SDS011;16801;53.562;10.038;2023-04-25T07:58:11;9.07;;;2.03;;
29940;SDS011;16801;53.562;10.038;2023-04-25T08:01:34;2.03;;;1.47;;
29940;SDS011;16801;53.562;10.038;2023-04-25T08:04:57;5.23;;;2.07;;
29940;SDS011;16801;53.562;10.038;2023-04-25T08:08:18;3.40;;;1.90;;
29940;SDS011;16801;53.562;10.038;2023-04-25T08:11:40;4.07;;;2.30;;
29940;SDS011;16801;53.562;10.038;2023-04-25T08:15:05;3.37;;;1.77;;
29940;SDS011;16801;53.562;10.038;2023-04-25T08:18:30;2.80;;;1.30;;
29940;SDS011;16801;53.562;10.038;2023-04-25T08:21:51;3.93;;;1.67;;
29940;SDS011;16801;53.562;10.038;2023-04-25T08:25:18;7.80;;;2.00;;
29940;SDS011;16801;53.562;10.038;2023-04-25T08:28:40;3.37;;;1.83;;
29940;SDS011;16801;53.562;10.038;2023-04-25T08:32:02;6.33;;;2.57;;
29940;SDS011;16801;53.562;10.038;2023-04-25T08:35:24;2.07;;;1.67;;
29940;SDS011;16801;53.562;10.038;2023-04-25T08:38:45;5.10;;;2.53;;
29940;SDS011;16801;53.562;10.038;2023-04-25T08:42:06;8.67;;;1.93;;
29940;SDS011;16801;53.562;10.038;2023-04-25T08:45:27;1.93;;;1.00;;
29940;SDS011;16801;53.562;10.038;2023-04-25T08:48:54;7.17;;;1.97;;
29940;SDS011;16801;53.562;10.038;2023-04-25T08:52:21;3.13;;;1.40;;
29940;SDS011;16801;53.562;10.038;2023-04-25T08:55:43;2.50;;;2.30;;
29940;SDS011;16801;53.562;10.038;2023-04-25T08:59:05;2.33;;;2.03;;
29940;SDS011;16801;53.562;10.038;2023-04-25T09:02:28;4.00;;;1.20;;
29940;SDS011;16801;53.562;10.038;2023-04-25T09:05:51;5.60;;;2.20;;
29940;SDS011;16801;53.562;10.038;2023-04-25T09:09:14;3.27;;;1.13;;
29940;SDS011;16801;53.562;10.038;2023-04-25T09:12:35;2.03;;;1.20;;
29940;SDS011;16801;53.562;10.038;2023-04-25T09:15:57;2.27;;;1.40;;
29940;SDS011;16801;53.562;10.038;2023-04-25T09:19:44;2.27;;;1.83;;
29940;SDS011;16801;53.562;10.038;2023-04-25T09:23:12;2.63;;;2.43;;
29940;SDS011;16801;53.562;10.038;2023-04-25T09:26:34;5.97;;;2.70;;
29940;SDS011;16801;53.562;10.038;2023-04-25T09:29:57;1.60;;;1.07;;
29940;SDS011;16801;53.562;10.038;2023-04-25T09:33:21;4.20;;;1.43;;
29940;SDS011;16801;53.562;10.038;2023-04-25T09:36:48;7.30;;;1.43;;
29940;SDS011;16801;53.562;10.038;2023-04-25T09:40:25;2.03;;;1.50;;
29940;SDS011;16801;53.562;10.038;2023-04-25T09:43:58;3.70;;;1.37;;
29940;SDS011;16801;53.562;10.038;2023-04-25T09:47:23;1.80;;;1.47;;
29940;SDS011;16801;53.562;10.038;2023-04-25T09:50:51;2.53;;;1.70;;
29940;SDS011;16801;53.562;10.038;2023-04-25T09:54:25;5.60;;;1.40;;
29940;SDS011;16801;53.562;10.038;2023-04-25T09:58:03;17.93;;;1.73;;
29940;SDS011;16801;53.562;10.038;2023-04-25T10:01:25;4.50;;;1.93;;
29940;SDS011;16801;53.562;10.038;2023-04-25T10:04:58;3.53;;;1.80;;
29940;SDS011;16801;53.562;10.038;2023-04-25T10:08:30;2.60;;;1.70;;
29940;SDS011;16801;53.562;10.038;2023-04-25T10:11:53;11.43;;;1.40;;
29940;SDS011;16801;53.562;10.038;2023-04-25T10:15:17;1.30;;;0.80;;
29940;SDS011;16801;53.562;10.038;2023-04-25T10:18:38;2.47;;;2.00;;
29940;SDS011;16801;53.562;10.038;2023-04-25T10:22:02;1.80;;;0.80;;
29940;SDS011;16801;53.562;10.038;2023-04-25T10:25:26;3.57;;;1.67;;
29940;SDS011;16801;53.562;10.038;2023-04-25T10:28:57;2.30;;;1.97;;
29940;SDS011;16801;53.562;10.038;2023-04-25T10:32:20;2.97;;;2.53;;
29940;SDS011;16801;53.562;10.038;2023-04-25T10:35:41;2.87;;;1.43;;
29940;SDS011;16801;53.562;10.038;2023-04-25T10:39:03;1.80;;;0.90;;
29940;SDS011;16801;53.562;10.038;2023-04-25T10:42:27;8.47;;;1.97;;
29940;SDS011;16801;53.562;10.038;2023-04-25T10:45:51;5.83;;;2.27;;
29940;SDS011;16801;53.562;10.038;2023-04-25T10:49:27;1.33;;;0.93;;
29940;SDS011;16801;53.562;10.038;2023-04-25T10:52:49;5.23;;;2.33;;
29940;SDS011;16801;53.562;10.038;2023-04-25T10:56:10;7.10;;;2.60;;
29940;SDS011;16801;53.562;10.038;2023-04-25T10:59:33;1.90;;;1.33;;
29940;SDS011;16801;53.562;10.038;2023-04-25T11:02:57;6.87;;;2.33;;
29940;SDS011;16801;53.562;10.038;2023-04-25T11:06:22;4.10;;;2.27;;
29940;SDS011;16801;53.562;10.038;2023-04-25T11:09:47;2.00;;;1.60;;
29940;SDS011;16801;53.562;10.038;2023-04-25T11:13:08;1.57;;;1.07;;
29940;SDS011;16801;53.562;10.038;2023-04-25T11:16:28;2.93;;;1.37;;
29940;SDS011;16801;53.562;10.038;2023-04-25T11:19:50;3.30;;;1.37;;
29940;SDS011;16801;53.562;10.038;2023-04-25T11:23:12;1.43;;;1.30;;
29940;SDS011;16801;53.562;10.038;2023-04-25T11:26:33;2.90;;;1.63;;
29940;SDS011;16801;53.562;10.038;2023-04-25T11:29:57;3.10;;;1.20;;
29940;SDS011;16801;53.562;10.038;2023-04-25T11:33:17;5.23;;;1.10;;
29940;SDS011;16801;53.562;10.038;2023-04-25T11:36:43;5.33;;;1.53;;
29940;SDS011;16801;53.562;10.038;2023-04-25T11:40:07;14.63;;;2.73;;
29940;SDS011;16801;53.562;10.038;2023-04-25T11:43:29;3.27;;;1.00;;
29940;SDS011;16801;53.562;10.038;2023-04-25T11:46:50;2.33;;;1.40;;
29940;SDS011;16801;53.562;10.038;2023-04-25T11:50:10;2.07;;;1.27;;
29940;SDS011;16801;53.562;10.038;2023-04-25T11:53:33;2.13;;;1.50;;
29940;SDS011;16801;53.562;10.038;2023-04-25T11:56:57;2.07;;;0.80;;
29940;SDS011;16801;53.562;10.038;2023-04-25T12:00:18;1.57;;;0.73;;
29940;SDS011;16801;53.562;10.038;2023-04-25T12:03:45;1.60;;;1.50;;
29940;SDS011;16801;53.562;10.038;2023-04-25T12:07:09;1.47;;;1.37;;
29940;SDS011;16801;53.562;10.038;2023-04-25T12:10:30;2.23;;;1.40;;
29940;SDS011;16801;53.562;10.038;2023-04-25T12:13:52;1.30;;;0.73;;
29940;SDS011;16801;53.562;10.038;2023-04-25T12:17:13;3.10;;;1.97;;
29940;SDS011;16801;53.562;10.038;2023-04-25T12:20:34;5.80;;;1.77;;
29940;SDS011;16801;53.562;10.038;2023-04-25T12:23:55;0.87;;;0.63;;
29940;SDS011;16801;53.562;10.038;2023-04-25T12:27:17;0.53;;;0.53;;
29940;SDS011;16801;53.562;10.038;2023-04-25T12:30:53;1.70;;;0.80;;
29940;SDS011;16801;53.562;10.038;2023-04-25T12:34:15;1.87;;;0.80;;
29940;SDS011;16801;53.562;10.038;2023-04-25T12:37:36;1.30;;;0.80;;
29940;SDS011;16801;53.562;10.038;2023-04-25T12:40:57;3.80;;;1.03;;
29940;SDS011;16801;53.562;10.038;2023-04-25T12:44:18;4.07;;;1.70;;
29940;SDS011;16801;53.562;10.038;2023-04-25T12:47:40;0.83;;;0.53;;
29940;SDS011;16801;53.562;10.038;2023-04-25T12:51:01;2.00;;;0.73;;
29940;SDS011;16801;53.562;10.038;2023-04-25T12:54:22;0.80;;;0.50;;
29940;SDS011;16801;53.562;10.038;2023-04-25T12:57:44;1.43;;;1.33;;
29940;SDS011;16801;53.562;10.038;2023-04-25T13:01:05;3.87;;;1.10;;
29940;SDS011;16801;53.562;10.038;2023-04-25T13:04:27;1.77;;;1.37;;
29940;SDS011;16801;53.562;10.038;2023-04-25T13:07:49;1.33;;;1.23;;
29940;SDS011;16801;53.562;10.038;2023-04-25T13:11:10;4.17;;;0.93;;
29940;SDS011;16801;53.562;10.038;2023-04-25T13:14:31;1.63;;;0.90;;
29940;SDS011;16801;53.562;10.038;2023-04-25T13:17:52;5.00;;;1.17;;
29940;SDS011;16801;53.562;10.038;2023-04-25T13:21:14;2.60;;;1.10;;
29940;SDS011;16801;53.562;10.038;2023-04-25T13:24:35;1.70;;;1.33;;
29940;SDS011;16801;53.562;10.038;2023-04-25T13:27:56;3.37;;;0.70;;
29940;SDS011;16801;53.562;10.038;2023-04-25T13:31:17;1.53;;;1.43;;
29940;SDS011;16801;53.562;10.038;2023-04-25T13:34:38;1.27;;;0.90;;
29940;SDS011;16801;53.562;10.038;2023-04-25T13:38:01;2.67;;;1.27;;
29940;SDS011;16801;53.562;10.038;2023-04-25T13:41:22;1.70;;;0.90;;
29940;SDS011;16801;53.562;10.038;2023-04-25T13:44:43;4.17;;;1.30;;
29940;SDS011;16801;53.562;10.038;2023-04-25T13:48:06;5.13;;;1.60;;
29940;SDS011;16801;53.562;10.038;2023-04-25T13:51:27;6.57;;;1.03;;
29940;SDS011;16801;53.562;10.038;2023-04-25T13:54:51;10.03;;;2.80;;
29940;SDS011;16801;53.562;10.038;2023-04-25T13:58:12;1.97;;;1.20;;
29940;SDS011;16801;53.562;10.038;2023-04-25T14:01:33;4.23;;;1.30;;
29940;SDS011;16801;53.562;10.038;2023-04-25T14:04:54;1.47;;;1.30;;
29940;SDS011;16801;53.562;10.038;2023-04-25T14:08:15;1.67;;;0.80;;
29940;SDS011;16801;53.562;10.038;2023-04-25T14:11:37;2.17;;;1.43;;
29940;SDS011;16801;53.562;10.038;2023-04-25T14:14:59;1.90;;;1.70;;
29940;SDS011;16801;53.562;10.038;2023-04-25T14:18:19;6.03;;;2.17;;
29940;SDS011;16801;53.562;10.038;2023-04-25T14:21:41;3.07;;;1.97;;
29940;SDS011;16801;53.562;10.038;2023-04-25T14:25:02;4.00;;;1.23;;
29940;SDS011;16801;53.562;10.038;2023-04-25T14:28:26;2.47;;;1.30;;
29940;SDS011;16801;53.562;10.038;2023-04-25T14:31:47;4.07;;;1.73;;
29940;SDS011;16801;53.562;10.038;2023-04-25T14:35:08;5.40;;;2.10;;
29940;SDS011;16801;53.562;10.038;2023-04-25T14:38:29;4.37;;;1.23;;
29940;SDS011;16801;53.562;10.038;2023-04-25T14:41:50;1.07;;;0.73;;
29940;SDS011;16801;53.562;10.038;2023-04-25T14:45:12;2.70;;;0.80;;
29940;SDS011;16801;53.562;10.038;2023-04-25T14:48:33;1.47;;;1.27;;
29940;SDS011;16801;53.562;10.038;2023-04-25T14:51:54;4.83;;;1.53;;
29940;SDS011;16801;53.562;10.038;2023-04-25T14:55:15;2.57;;;1.13;;
29940;SDS011;16801;53.562;10.038;2023-04-25T14:58:36;1.67;;;1.47;;
29940;SDS011;16801;53.562;10.038;2023-04-25T15:01:59;3.20;;;0.97;;
29940;SDS011;16801;53.562;10.038;2023-04-25T15:05:20;1.43;;;1.33;;
29940;SDS011;16801;53.562;10.038;2023-04-25T15:08:41;1.63;;;1.27;;
29940;SDS011;16801;53.562;10.038;2023-04-25T15:12:02;4.80;;;1.53;;
29940;SDS011;16801;53.562;10.038;2023-04-25T15:15:23;4.57;;;2.40;;
29940;SDS011;16801;53.562;10.038;2023-04-25T15:18:46;4.93;;;2.23;;
29940;SDS011;16801;53.562;10.038;2023-04-25T15:22:07;3.23;;;2.73;;
29940;SDS011;16801;53.562;10.038;2023-04-25T15:25:28;4.17;;;2.57;;
29940;SDS011;16801;53.562;10.038;2023-04-25T15:28:49;4.50;;;1.73;;
29940;SDS011;16801;53.562;10.038;2023-04-25T15:32:11;2.73;;;2.23;;
29940;SDS011;16801;53.562;10.038;2023-04-25T15:35:33;3.70;;;1.53;;
29940;SDS011;16801;53.562;10.038;2023-04-25T15:38:54;1.50;;;0.70;;
29940;SDS011;16801;53.562;10.038;2023-04-25T15:42:16;3.53;;;1.53;;
29940;SDS011;16801;53.562;10.038;2023-04-25T15:45:36;2.13;;;1.80;;
29940;SDS011;16801;53.562;10.038;2023-04-25T15:48:57;2.37;;;1.70;;
29940;SDS011;16801;53.562;10.038;2023-04-25T15:52:19;2.87;;;1.80;;
29940;SDS011;16801;53.562;10.038;2023-04-25T15:55:41;1.37;;;1.23;;
29940;SDS011;16801;53.562;10.038;2023-04-25T15:59:02;0.73;;;0.73;;
29940;SDS011;16801;53.562;10.038;2023-04-25T16:02:23;1.60;;;1.50;;
29940;SDS011;16801;53.562;10.038;2023-04-25T16:05:45;2.83;;;1.70;;
29940;SDS011;16801;53.562;10.038;2023-04-25T16:09:07;1.40;;;1.00;;
29940;SDS011;16801;53.562;10.038;2023-04-25T16:12:29;2.27;;;1.50;;
29940;SDS011;16801;53.562;10.038;2023-04-25T16:15:49;0.80;;;0.80;;
29940;SDS011;16801;53.562;10.038;2023-04-25T16:19:10;3.07;;;1.40;;
29940;SDS011;16801;53.562;10.038;2023-04-25T16:22:31;1.00;;;0.90;;
29940;SDS011;16801;53.562;10.038;2023-04-25T16:25:53;1.20;;;1.13;;
29940;SDS011;16801;53.562;10.038;2023-04-25T16:29:16;1.13;;;0.80;;
29940;SDS011;16801;53.562;10.038;2023-04-25T16:32:37;1.53;;;1.40;;
29940;SDS011;16801;53.562;10.038;2023-04-25T16:35:59;7.40;;;1.77;;
29940;SDS011;16801;53.562;10.038;2023-04-25T16:39:25;3.13;;;1.30;;
29940;SDS011;16801;53.562;10.038;2023-04-25T16:42:47;0.70;;;0.70;;
29940;SDS011;16801;53.562;10.038;2023-04-25T16:46:08;3.40;;;2.40;;
29940;SDS011;16801;53.562;10.038;2023-04-25T16:49:29;1.47;;;1.13;;
29940;SDS011;16801;53.562;10.038;2023-04-25T16:52:50;1.30;;;1.20;;
29940;SDS011;16801;53.562;10.038;2023-04-25T16:56:13;4.17;;;0.97;;
29940;SDS011;16801;53.562;10.038;2023-04-25T16:59:37;4.27;;;1.53;;
29940;SDS011;16801;53.562;10.038;2023-04-25T17:02:58;2.93;;;2.40;;
29940;SDS011;16801;53.562;10.038;2023-04-25T17:06:19;4.17;;;2.00;;
29940;SDS011;16801;53.562;10.038;2023-04-25T17:09:40;5.60;;;2.73;;
29940;SDS011;16801;53.562;10.038;2023-04-25T17:13:01;1.73;;;1.57;;
29940;SDS011;16801;53.562;10.038;2023-04-25T17:16:27;3.27;;;2.73;;
29940;SDS011;16801;53.562;10.038;2023-04-25T17:19:54;4.07;;;2.13;;
29940;SDS011;16801;53.562;10.038;2023-04-25T17:23:15;2.67;;;1.63;;
29940;SDS011;16801;53.562;10.038;2023-04-25T17:26:37;2.27;;;1.60;;
29940;SDS011;16801;53.562;10.038;2023-04-25T17:29:58;2.67;;;2.47;;
29940;SDS011;16801;53.562;10.038;2023-04-25T17:33:26;3.00;;;1.10;;
29940;SDS011;16801;53.562;10.038;2023-04-25T17:36:47;1.87;;;0.90;;
29940;SDS011;16801;53.562;10.038;2023-04-25T17:40:08;2.10;;;0.80;;
29940;SDS011;16801;53.562;10.038;2023-04-25T17:43:30;1.17;;;1.03;;
29940;SDS011;16801;53.562;10.038;2023-04-25T17:46:51;2.33;;;1.00;;
29940;SDS011;16801;53.562;10.038;2023-04-25T17:50:13;3.03;;;1.43;;
29940;SDS011;16801;53.562;10.038;2023-04-25T17:53:35;1.77;;;1.63;;
29940;SDS011;16801;53.562;10.038;2023-04-25T17:56:56;2.30;;;1.00;;
29940;SDS011;16801;53.562;10.038;2023-04-25T18:00:17;2.20;;;1.00;;
29940;SDS011;16801;53.562;10.038;2023-04-25T18:03:38;1.67;;;1.03;;
29940;SDS011;16801;53.562;10.038;2023-04-25T18:07:02;1.50;;;1.40;;
29940;SDS011;16801;53.562;10.038;2023-04-25T18:10:23;1.60;;;1.13;;
29940;SDS011;16801;53.562;10.038;2023-04-25T18:13:44;3.33;;;3.03;;
29940;SDS011;16801;53.562;10.038;2023-04-25T18:17:07;4.70;;;2.47;;
29940;SDS011;16801;53.562;10.038;2023-04-25T18:20:30;2.83;;;1.27;;
29940;SDS011;16801;53.562;10.038;2023-04-25T18:23:52;4.23;;;3.67;;
29940;SDS011;16801;53.562;10.038;2023-04-25T18:27:13;3.80;;;2.80;;
29940;SDS011;16801;53.562;10.038;2023-04-25T18:30:34;4.63;;;2.13;;
29940;SDS011;16801;53.562;10.038;2023-04-25T18:33:56;7.80;;;2.87;;
29940;SDS011;16801;53.562;10.038;2023-04-25T18:37:17;4.63;;;2.10;;
29940;SDS011;16801;53.562;10.038;2023-04-25T18:40:40;5.83;;;2.50;;
29940;SDS011;16801;53.562;10.038;2023-04-25T18:44:01;6.03;;;3.07;;
29940;SDS011;16801;53.562;10.038;2023-04-25T18:47:23;2.80;;;2.23;;
29940;SDS011;16801;53.562;10.038;2023-04-25T18:50:44;1.83;;;1.00;;
29940;SDS011;16801;53.562;10.038;2023-04-25T18:54:05;2.43;;;1.60;;
29940;SDS011;16801;53.562;10.038;2023-04-25T18:57:30;3.03;;;1.97;;
29940;SDS011;16801;53.562;10.038;2023-04-25T19:00:51;1.60;;;1.50;;
29940;SDS011;16801;53.562;10.038;2023-04-25T19:04:13;1.57;;;1.33;;
29940;SDS011;16801;53.562;10.038;2023-04-25T19:07:35;4.20;;;1.47;;
29940;SDS011;16801;53.562;10.038;2023-04-25T19:10:56;2.90;;;1.87;;
29940;SDS011;16801;53.562;10.038;2023-04-25T19:14:18;4.03;;;1.67;;
29940;SDS011;16801;53.562;10.038;2023-04-25T19:17:39;2.27;;;1.20;;
29940;SDS011;16801;53.562;10.038;2023-04-25T19:21:00;3.90;;;2.07;;
29940;SDS011;16801;53.562;10.038;2023-04-25T19:24:23;3.33;;;2.97;;
29940;SDS011;16801;53.562;10.038;2023-04-25T19:27:45;5.33;;;1.70;;
29940;SDS011;16801;53.562;10.038;2023-04-25T19:31:07;4.73;;;1.83;;
29940;SDS011;16801;53.562;10.038;2023-04-25T19:34:29;4.53;;;2.60;;
29940;SDS011;16801;53.562;10.038;2023-04-25T19:37:50;5.10;;;1.80;;
29940;SDS011;16801;53.562;10.038;2023-04-25T19:41:11;1.47;;;1.13;;
29940;SDS011;16801;53.562;10.038;2023-04-25T19:44:32;2.10;;;1.53;;
29940;SDS011;16801;53.562;10.038;2023-04-25T19:47:55;2.13;;;1.67;;
29940;SDS011;16801;53.562;10.038;2023-04-25T19:51:17;2.60;;;2.10;;
29940;SDS011;16801;53.562;10.038;2023-04-25T19:54:38;2.07;;;1.53;;
29940;SDS011;16801;53.562;10.038;2023-04-25T19:57:59;4.43;;;1.70;;
29940;SDS011;16801;53.562;10.038;2023-04-25T20:01:21;2.43;;;1.87;;
29940;SDS011;16801;53.562;10.038;2023-04-25T20:04:43;4.33;;;1.93;;
29940;SDS011;16801;53.562;10.038;2023-04-25T20:08:04;4.40;;;1.47;;